sensor_id;sensor_type;location;lat;lon;timestamp;P1;durP1;ratioP1;P2;durP2;ratioP2
73515;SDS011;61763;51.416;5.442;2022-12-07T00:01:06;17.23;;;9.65;;
73515;SDS011;61763;51.416;5.442;2022-12-07T00:03:33;18.67;;;10.23;;
73515;SDS011;61763;51.416;5.442;2022-12-07T00:06:00;17.42;;;8.90;;
73515;SDS011;61763;51.416;5.442;2022-12-07T00:08:26;23.63;;;10.10;;
73515;SDS011;61763;51.416;5.442;2022-12-07T00:10:51;24.60;;;11.23;;
73515;SDS011;61763;51.416;5.442;2022-12-07T00:13:17;23.90;;;11.88;;
73515;SDS011;61763;51.416;5.442;2022-12-07T00:15:42;18.15;;;10.07;;
73515;SDS011;61763;51.416;5.442;2022-12-07T00:18:08;21.30;;;10.40;;
73515;SDS011;61763;51.416;5.442;2022-12-07T00:20:33;21.80;;;9.88;;
73515;SDS011;61763;51.416;5.442;2022-12-07T00:22:59;19.60;;;10.07;;
73515;SDS011;61763;51.416;5.442;2022-12-07T00:25:24;21.92;;;9.68;;
73515;SDS011;61763;51.416;5.442;2022-12-07T00:27:52;19.00;;;9.00;;
73515;SDS011;61763;51.416;5.442;2022-12-07T00:30:20;16.38;;;9.13;;
73515;SDS011;61763;51.416;5.442;2022-12-07T00:32:46;18.48;;;9.82;;
73515;SDS011;61763;51.416;5.442;2022-12-07T00:35:11;18.67;;;8.18;;
73515;SDS011;61763;51.416;5.442;2022-12-07T00:37:36;20.98;;;9.02;;
73515;SDS011;61763;51.416;5.442;2022-12-07T00:40:02;19.95;;;8.98;;
73515;SDS011;61763;51.416;5.442;2022-12-07T00:42:27;20.33;;;9.57;;
73515;SDS011;61763;51.416;5.442;2022-12-07T00:44:53;24.42;;;10.50;;
73515;SDS011;61763;51.416;5.442;2022-12-07T00:47:18;26.48;;;10.80;;
73515;SDS011;61763;51.416;5.442;2022-12-07T00:49:43;22.13;;;10.02;;
73515;SDS011;61763;51.416;5.442;2022-12-07T00:52:09;24.02;;;10.55;;
73515;SDS011;61763;51.416;5.442;2022-12-07T00:54:34;26.00;;;11.73;;
73515;SDS011;61763;51.416;5.442;2022-12-07T00:57:00;27.08;;;11.45;;
73515;SDS011;61763;51.416;5.442;2022-12-07T00:59:25;22.88;;;10.75;;
73515;SDS011;61763;51.416;5.442;2022-12-07T01:01:50;19.20;;;9.55;;
73515;SDS011;61763;51.416;5.442;2022-12-07T01:04:16;23.48;;;10.40;;
73515;SDS011;61763;51.416;5.442;2022-12-07T01:06:41;23.20;;;11.02;;
73515;SDS011;61763;51.416;5.442;2022-12-07T01:09:06;24.60;;;11.27;;
73515;SDS011;61763;51.416;5.442;2022-12-07T01:11:32;24.83;;;9.93;;
73515;SDS011;61763;51.416;5.442;2022-12-07T01:13:58;21.10;;;9.73;;
73515;SDS011;61763;51.416;5.442;2022-12-07T01:16:25;21.15;;;9.88;;
73515;SDS011;61763;51.416;5.442;2022-12-07T01:18:53;22.25;;;9.80;;
73515;SDS011;61763;51.416;5.442;2022-12-07T01:21:20;21.77;;;10.15;;
73515;SDS011;61763;51.416;5.442;2022-12-07T01:23:50;22.50;;;9.57;;
73515;SDS011;61763;51.416;5.442;2022-12-07T01:26:18;19.58;;;9.13;;
73515;SDS011;61763;51.416;5.442;2022-12-07T01:28:45;20.52;;;10.05;;
73515;SDS011;61763;51.416;5.442;2022-12-07T01:31:15;19.30;;;8.77;;
73515;SDS011;61763;51.416;5.442;2022-12-07T01:33:45;20.77;;;9.07;;
73515;SDS011;61763;51.416;5.442;2022-12-07T01:38:40;17.88;;;8.63;;
73515;SDS011;61763;51.416;5.442;2022-12-07T01:41:06;19.60;;;9.55;;
73515;SDS011;61763;51.416;5.442;2022-12-07T01:43:32;23.17;;;9.60;;
73515;SDS011;61763;51.416;5.442;2022-12-07T01:45:59;21.42;;;10.27;;
73515;SDS011;61763;51.416;5.442;2022-12-07T01:48:30;21.17;;;10.70;;
73515;SDS011;61763;51.416;5.442;2022-12-07T01:50:59;20.70;;;9.55;;
73515;SDS011;61763;51.416;5.442;2022-12-07T01:53:29;26.48;;;10.75;;
73515;SDS011;61763;51.416;5.442;2022-12-07T01:55:55;27.73;;;10.80;;
73515;SDS011;61763;51.416;5.442;2022-12-07T01:58:23;23.05;;;11.30;;
73515;SDS011;61763;51.416;5.442;2022-12-07T02:00:49;23.92;;;11.63;;
73515;SDS011;61763;51.416;5.442;2022-12-07T02:05:46;25.00;;;11.50;;
73515;SDS011;61763;51.416;5.442;2022-12-07T02:08:13;25.08;;;11.35;;
73515;SDS011;61763;51.416;5.442;2022-12-07T02:10:39;24.10;;;12.13;;
73515;SDS011;61763;51.416;5.442;2022-12-07T02:18:09;26.02;;;10.52;;
73515;SDS011;61763;51.416;5.442;2022-12-07T02:23:41;25.50;;;10.93;;
73515;SDS011;61763;51.416;5.442;2022-12-07T02:31:56;29.77;;;10.13;;
73515;SDS011;61763;51.416;5.442;2022-12-07T02:34:37;23.92;;;10.65;;
73515;SDS011;61763;51.416;5.442;2022-12-07T02:42:56;19.30;;;9.70;;
73515;SDS011;61763;51.416;5.442;2022-12-07T02:45:26;19.58;;;8.55;;
73515;SDS011;61763;51.416;5.442;2022-12-07T02:47:55;21.15;;;9.00;;
73515;SDS011;61763;51.416;5.442;2022-12-07T02:50:23;15.07;;;8.13;;
73515;SDS011;61763;51.416;5.442;2022-12-07T02:52:49;21.05;;;8.55;;
73515;SDS011;61763;51.416;5.442;2022-12-07T02:55:15;16.50;;;8.02;;
73515;SDS011;61763;51.416;5.442;2022-12-07T02:57:53;16.58;;;7.45;;
73515;SDS011;61763;51.416;5.442;2022-12-07T03:00:30;16.58;;;6.75;;
73515;SDS011;61763;51.416;5.442;2022-12-07T03:03:04;16.60;;;7.63;;
73515;SDS011;61763;51.416;5.442;2022-12-07T03:10:58;15.00;;;7.18;;
73515;SDS011;61763;51.416;5.442;2022-12-07T03:18:46;19.95;;;7.18;;
73515;SDS011;61763;51.416;5.442;2022-12-07T03:24:33;18.33;;;7.95;;
73515;SDS011;61763;51.416;5.442;2022-12-07T03:27:06;17.58;;;8.20;;
73515;SDS011;61763;51.416;5.442;2022-12-07T03:29:39;20.38;;;7.75;;
73515;SDS011;61763;51.416;5.442;2022-12-07T03:32:12;16.02;;;6.72;;
73515;SDS011;61763;51.416;5.442;2022-12-07T03:34:47;16.90;;;6.57;;
73515;SDS011;61763;51.416;5.442;2022-12-07T03:37:41;15.23;;;7.00;;
73515;SDS011;61763;51.416;5.442;2022-12-07T03:40:15;14.85;;;6.63;;
73515;SDS011;61763;51.416;5.442;2022-12-07T03:42:47;15.65;;;7.75;;
73515;SDS011;61763;51.416;5.442;2022-12-07T03:45:13;14.63;;;7.03;;
73515;SDS011;61763;51.416;5.442;2022-12-07T03:47:45;16.92;;;6.80;;
73515;SDS011;61763;51.416;5.442;2022-12-07T03:52:54;17.13;;;7.57;;
73515;SDS011;61763;51.416;5.442;2022-12-07T03:55:27;16.25;;;6.75;;
73515;SDS011;61763;51.416;5.442;2022-12-07T03:57:58;17.80;;;8.27;;
73515;SDS011;61763;51.416;5.442;2022-12-07T04:00:27;22.52;;;8.82;;
73515;SDS011;61763;51.416;5.442;2022-12-07T04:02:53;16.98;;;7.90;;
73515;SDS011;61763;51.416;5.442;2022-12-07T04:05:19;17.90;;;8.55;;
73515;SDS011;61763;51.416;5.442;2022-12-07T04:07:45;17.58;;;8.65;;
73515;SDS011;61763;51.416;5.442;2022-12-07T04:10:11;18.58;;;8.00;;
73515;SDS011;61763;51.416;5.442;2022-12-07T04:12:37;16.30;;;7.93;;
73515;SDS011;61763;51.416;5.442;2022-12-07T04:15:03;15.80;;;7.57;;
73515;SDS011;61763;51.416;5.442;2022-12-07T04:17:29;15.82;;;7.65;;
73515;SDS011;61763;51.416;5.442;2022-12-07T04:19:54;16.88;;;6.85;;
73515;SDS011;61763;51.416;5.442;2022-12-07T04:22:19;13.70;;;6.82;;
73515;SDS011;61763;51.416;5.442;2022-12-07T04:24:45;16.00;;;6.82;;
73515;SDS011;61763;51.416;5.442;2022-12-07T04:27:10;15.85;;;7.65;;
73515;SDS011;61763;51.416;5.442;2022-12-07T04:29:36;14.82;;;6.75;;
73515;SDS011;61763;51.416;5.442;2022-12-07T04:32:01;13.43;;;7.00;;
73515;SDS011;61763;51.416;5.442;2022-12-07T04:34:26;13.32;;;6.40;;
73515;SDS011;61763;51.416;5.442;2022-12-07T04:36:52;15.90;;;6.85;;
73515;SDS011;61763;51.416;5.442;2022-12-07T04:39:19;17.42;;;6.75;;
73515;SDS011;61763;51.416;5.442;2022-12-07T04:41:52;17.05;;;6.45;;
73515;SDS011;61763;51.416;5.442;2022-12-07T04:44:18;13.60;;;6.20;;
73515;SDS011;61763;51.416;5.442;2022-12-07T04:46:44;16.63;;;6.57;;
73515;SDS011;61763;51.416;5.442;2022-12-07T04:49:10;11.90;;;6.78;;
73515;SDS011;61763;51.416;5.442;2022-12-07T04:51:36;13.25;;;6.53;;
73515;SDS011;61763;51.416;5.442;2022-12-07T04:54:03;13.75;;;6.70;;
73515;SDS011;61763;51.416;5.442;2022-12-07T04:56:29;14.82;;;6.68;;
73515;SDS011;61763;51.416;5.442;2022-12-07T04:58:54;15.98;;;6.40;;
73515;SDS011;61763;51.416;5.442;2022-12-07T05:01:20;13.45;;;6.93;;
73515;SDS011;61763;51.416;5.442;2022-12-07T05:03:47;14.70;;;6.15;;
73515;SDS011;61763;51.416;5.442;2022-12-07T05:06:13;16.42;;;7.60;;
73515;SDS011;61763;51.416;5.442;2022-12-07T05:08:38;12.48;;;7.10;;
73515;SDS011;61763;51.416;5.442;2022-12-07T05:11:05;14.40;;;6.20;;
73515;SDS011;61763;51.416;5.442;2022-12-07T05:13:31;13.90;;;6.70;;
73515;SDS011;61763;51.416;5.442;2022-12-07T05:15:57;14.52;;;6.63;;
73515;SDS011;61763;51.416;5.442;2022-12-07T05:18:22;20.15;;;6.72;;
73515;SDS011;61763;51.416;5.442;2022-12-07T05:20:48;16.85;;;6.97;;
73515;SDS011;61763;51.416;5.442;2022-12-07T05:23:14;16.48;;;7.20;;
73515;SDS011;61763;51.416;5.442;2022-12-07T05:25:39;12.60;;;6.53;;
73515;SDS011;61763;51.416;5.442;2022-12-07T05:28:05;16.90;;;6.00;;
73515;SDS011;61763;51.416;5.442;2022-12-07T05:30:31;18.00;;;6.40;;
73515;SDS011;61763;51.416;5.442;2022-12-07T05:32:57;10.68;;;6.72;;
73515;SDS011;61763;51.416;5.442;2022-12-07T05:35:23;14.32;;;5.82;;
73515;SDS011;61763;51.416;5.442;2022-12-07T05:37:48;19.65;;;6.15;;
73515;SDS011;61763;51.416;5.442;2022-12-07T05:40:14;10.88;;;4.80;;
73515;SDS011;61763;51.416;5.442;2022-12-07T05:42:40;9.18;;;4.82;;
73515;SDS011;61763;51.416;5.442;2022-12-07T05:45:07;14.20;;;4.88;;
73515;SDS011;61763;51.416;5.442;2022-12-07T05:47:34;12.95;;;5.07;;
73515;SDS011;61763;51.416;5.442;2022-12-07T05:49:59;8.77;;;4.28;;
73515;SDS011;61763;51.416;5.442;2022-12-07T05:52:24;8.30;;;4.15;;
73515;SDS011;61763;51.416;5.442;2022-12-07T05:54:50;12.07;;;3.72;;
73515;SDS011;61763;51.416;5.442;2022-12-07T05:57:16;9.40;;;4.53;;
73515;SDS011;61763;51.416;5.442;2022-12-07T05:59:41;9.30;;;4.32;;
73515;SDS011;61763;51.416;5.442;2022-12-07T06:02:11;8.48;;;4.10;;
73515;SDS011;61763;51.416;5.442;2022-12-07T06:04:41;7.95;;;3.50;;
73515;SDS011;61763;51.416;5.442;2022-12-07T06:07:11;7.05;;;3.53;;
73515;SDS011;61763;51.416;5.442;2022-12-07T06:09:38;10.48;;;3.22;;
73515;SDS011;61763;51.416;5.442;2022-12-07T06:12:03;9.45;;;3.45;;
73515;SDS011;61763;51.416;5.442;2022-12-07T06:14:48;8.20;;;2.83;;
73515;SDS011;61763;51.416;5.442;2022-12-07T06:17:14;9.15;;;3.60;;
73515;SDS011;61763;51.416;5.442;2022-12-07T06:19:40;9.82;;;3.58;;
73515;SDS011;61763;51.416;5.442;2022-12-07T06:22:07;12.45;;;3.20;;
73515;SDS011;61763;51.416;5.442;2022-12-07T06:24:34;10.85;;;4.00;;
73515;SDS011;61763;51.416;5.442;2022-12-07T06:26:59;15.13;;;4.70;;
73515;SDS011;61763;51.416;5.442;2022-12-07T06:29:25;13.25;;;4.25;;
73515;SDS011;61763;51.416;5.442;2022-12-07T06:31:50;12.18;;;4.40;;
73515;SDS011;61763;51.416;5.442;2022-12-07T06:34:17;14.13;;;4.38;;
73515;SDS011;61763;51.416;5.442;2022-12-07T06:36:45;10.35;;;4.90;;
73515;SDS011;61763;51.416;5.442;2022-12-07T06:39:16;9.68;;;4.35;;
73515;SDS011;61763;51.416;5.442;2022-12-07T06:41:43;14.18;;;5.05;;
73515;SDS011;61763;51.416;5.442;2022-12-07T06:44:08;13.35;;;5.32;;
73515;SDS011;61763;51.416;5.442;2022-12-07T06:46:34;14.35;;;5.97;;
73515;SDS011;61763;51.416;5.442;2022-12-07T06:49:03;18.83;;;8.07;;
73515;SDS011;61763;51.416;5.442;2022-12-07T06:51:29;20.25;;;7.93;;
73515;SDS011;61763;51.416;5.442;2022-12-07T06:53:55;21.05;;;7.97;;
73515;SDS011;61763;51.416;5.442;2022-12-07T06:56:21;24.35;;;10.20;;
73515;SDS011;61763;51.416;5.442;2022-12-07T06:58:47;26.38;;;10.40;;
73515;SDS011;61763;51.416;5.442;2022-12-07T07:01:14;27.25;;;11.32;;
73515;SDS011;61763;51.416;5.442;2022-12-07T07:03:43;29.95;;;12.10;;
73515;SDS011;61763;51.416;5.442;2022-12-07T07:06:09;27.10;;;11.98;;
73515;SDS011;61763;51.416;5.442;2022-12-07T07:08:36;27.48;;;12.38;;
73515;SDS011;61763;51.416;5.442;2022-12-07T07:11:03;30.08;;;11.32;;
73515;SDS011;61763;51.416;5.442;2022-12-07T07:13:28;32.50;;;12.63;;
73515;SDS011;61763;51.416;5.442;2022-12-07T07:15:54;36.97;;;13.80;;
73515;SDS011;61763;51.416;5.442;2022-12-07T07:18:19;41.00;;;15.43;;
73515;SDS011;61763;51.416;5.442;2022-12-07T07:20:45;41.00;;;15.60;;
73515;SDS011;61763;51.416;5.442;2022-12-07T07:23:11;40.38;;;17.10;;
73515;SDS011;61763;51.416;5.442;2022-12-07T07:25:36;45.38;;;17.75;;
73515;SDS011;61763;51.416;5.442;2022-12-07T07:28:02;51.72;;;18.60;;
73515;SDS011;61763;51.416;5.442;2022-12-07T07:30:28;42.30;;;15.40;;
73515;SDS011;61763;51.416;5.442;2022-12-07T07:33:00;40.30;;;14.55;;
73515;SDS011;61763;51.416;5.442;2022-12-07T07:35:27;35.28;;;13.55;;
73515;SDS011;61763;51.416;5.442;2022-12-07T07:37:54;33.58;;;13.00;;
73515;SDS011;61763;51.416;5.442;2022-12-07T07:40:20;35.30;;;12.77;;
73515;SDS011;61763;51.416;5.442;2022-12-07T07:42:49;31.65;;;12.50;;
73515;SDS011;61763;51.416;5.442;2022-12-07T07:45:15;32.17;;;11.68;;
73515;SDS011;61763;51.416;5.442;2022-12-07T07:47:41;29.00;;;11.65;;
73515;SDS011;61763;51.416;5.442;2022-12-07T07:50:06;34.97;;;13.27;;
73515;SDS011;61763;51.416;5.442;2022-12-07T07:52:32;32.20;;;12.82;;
73515;SDS011;61763;51.416;5.442;2022-12-07T07:54:57;35.92;;;12.55;;
73515;SDS011;61763;51.416;5.442;2022-12-07T07:57:23;30.70;;;12.75;;
73515;SDS011;61763;51.416;5.442;2022-12-07T07:59:48;28.17;;;12.00;;
73515;SDS011;61763;51.416;5.442;2022-12-07T08:02:18;33.33;;;11.68;;
73515;SDS011;61763;51.416;5.442;2022-12-07T08:04:45;27.70;;;11.77;;
73515;SDS011;61763;51.416;5.442;2022-12-07T08:07:11;28.67;;;11.63;;
73515;SDS011;61763;51.416;5.442;2022-12-07T08:09:37;23.88;;;11.88;;
73515;SDS011;61763;51.416;5.442;2022-12-07T08:12:03;28.98;;;10.38;;
73515;SDS011;61763;51.416;5.442;2022-12-07T08:14:28;22.67;;;10.80;;
73515;SDS011;61763;51.416;5.442;2022-12-07T08:16:54;26.10;;;11.00;;
73515;SDS011;61763;51.416;5.442;2022-12-07T08:19:19;28.55;;;11.23;;
73515;SDS011;61763;51.416;5.442;2022-12-07T08:21:45;25.83;;;12.05;;
73515;SDS011;61763;51.416;5.442;2022-12-07T08:24:10;27.67;;;11.68;;
73515;SDS011;61763;51.416;5.442;2022-12-07T08:26:37;24.83;;;11.80;;
73515;SDS011;61763;51.416;5.442;2022-12-07T08:29:02;26.52;;;11.02;;
73515;SDS011;61763;51.416;5.442;2022-12-07T08:31:28;21.63;;;11.88;;
73515;SDS011;61763;51.416;5.442;2022-12-07T08:33:53;23.42;;;10.93;;
73515;SDS011;61763;51.416;5.442;2022-12-07T08:36:19;21.65;;;9.93;;
73515;SDS011;61763;51.416;5.442;2022-12-07T08:38:46;21.50;;;10.10;;
73515;SDS011;61763;51.416;5.442;2022-12-07T08:41:12;22.55;;;9.55;;
73515;SDS011;61763;51.416;5.442;2022-12-07T08:43:37;23.30;;;8.48;;
73515;SDS011;61763;51.416;5.442;2022-12-07T08:46:07;19.85;;;7.72;;
73515;SDS011;61763;51.416;5.442;2022-12-07T08:48:34;16.42;;;7.30;;
73515;SDS011;61763;51.416;5.442;2022-12-07T08:51:03;18.02;;;6.80;;
73515;SDS011;61763;51.416;5.442;2022-12-07T08:53:28;15.68;;;6.82;;
73515;SDS011;61763;51.416;5.442;2022-12-07T08:55:54;15.93;;;6.90;;
73515;SDS011;61763;51.416;5.442;2022-12-07T08:58:21;14.38;;;6.50;;
73515;SDS011;61763;51.416;5.442;2022-12-07T09:00:46;15.23;;;7.22;;
73515;SDS011;61763;51.416;5.442;2022-12-07T09:03:12;17.75;;;6.57;;
73515;SDS011;61763;51.416;5.442;2022-12-07T09:05:37;13.63;;;6.50;;
73515;SDS011;61763;51.416;5.442;2022-12-07T09:08:02;14.88;;;7.00;;
73515;SDS011;61763;51.416;5.442;2022-12-07T09:10:28;18.42;;;6.78;;
73515;SDS011;61763;51.416;5.442;2022-12-07T09:12:54;19.73;;;5.95;;
73515;SDS011;61763;51.416;5.442;2022-12-07T09:15:19;14.70;;;6.07;;
73515;SDS011;61763;51.416;5.442;2022-12-07T09:17:45;13.75;;;6.40;;
73515;SDS011;61763;51.416;5.442;2022-12-07T09:20:10;12.20;;;5.80;;
73515;SDS011;61763;51.416;5.442;2022-12-07T09:22:36;11.65;;;5.72;;
73515;SDS011;61763;51.416;5.442;2022-12-07T09:25:02;13.90;;;5.65;;
73515;SDS011;61763;51.416;5.442;2022-12-07T09:27:29;9.07;;;4.28;;
73515;SDS011;61763;51.416;5.442;2022-12-07T09:29:55;10.13;;;4.20;;
73515;SDS011;61763;51.416;5.442;2022-12-07T09:32:21;9.65;;;4.47;;
73515;SDS011;61763;51.416;5.442;2022-12-07T09:34:47;10.40;;;3.88;;
73515;SDS011;61763;51.416;5.442;2022-12-07T09:37:12;11.65;;;4.65;;
73515;SDS011;61763;51.416;5.442;2022-12-07T09:39:38;12.52;;;4.80;;
73515;SDS011;61763;51.416;5.442;2022-12-07T09:42:04;9.18;;;4.10;;
73515;SDS011;61763;51.416;5.442;2022-12-07T09:44:31;8.77;;;4.10;;
73515;SDS011;61763;51.416;5.442;2022-12-07T09:46:58;10.63;;;4.03;;
73515;SDS011;61763;51.416;5.442;2022-12-07T09:49:24;12.52;;;5.55;;
73515;SDS011;61763;51.416;5.442;2022-12-07T09:52:54;15.93;;;6.05;;
73515;SDS011;61763;51.416;5.442;2022-12-07T09:54:53;10.55;;;4.90;;
73515;SDS011;61763;51.416;5.442;2022-12-07T09:57:20;11.30;;;5.97;;
73515;SDS011;61763;51.416;5.442;2022-12-07T09:59:59;8.80;;;4.35;;
73515;SDS011;61763;51.416;5.442;2022-12-07T10:04:55;13.23;;;5.90;;
73515;SDS011;61763;51.416;5.442;2022-12-07T10:07:22;13.52;;;5.70;;
73515;SDS011;61763;51.416;5.442;2022-12-07T10:09:48;16.70;;;5.65;;
73515;SDS011;61763;51.416;5.442;2022-12-07T10:12:14;12.57;;;6.40;;
73515;SDS011;61763;51.416;5.442;2022-12-07T10:14:51;16.50;;;6.30;;
73515;SDS011;61763;51.416;5.442;2022-12-07T10:19:59;12.18;;;4.70;;
73515;SDS011;61763;51.416;5.442;2022-12-07T10:22:36;14.23;;;5.03;;
73515;SDS011;61763;51.416;5.442;2022-12-07T10:25:07;10.88;;;4.22;;
73515;SDS011;61763;51.416;5.442;2022-12-07T10:27:34;13.88;;;4.78;;
73515;SDS011;61763;51.416;5.442;2022-12-07T10:29:59;9.88;;;4.55;;
73515;SDS011;61763;51.416;5.442;2022-12-07T10:32:28;12.27;;;4.38;;
73515;SDS011;61763;51.416;5.442;2022-12-07T10:37:47;11.85;;;4.50;;
73515;SDS011;61763;51.416;5.442;2022-12-07T10:40:31;10.10;;;4.05;;
73515;SDS011;61763;51.416;5.442;2022-12-07T10:49:03;10.70;;;4.05;;
73515;SDS011;61763;51.416;5.442;2022-12-07T10:51:52;9.15;;;3.85;;
73515;SDS011;61763;51.416;5.442;2022-12-07T10:57:47;10.70;;;3.28;;
73515;SDS011;61763;51.416;5.442;2022-12-07T11:11:13;10.32;;;3.38;;
73515;SDS011;61763;51.416;5.442;2022-12-07T11:13:42;10.57;;;2.75;;
73515;SDS011;61763;51.416;5.442;2022-12-07T11:22:06;7.88;;;3.72;;
73515;SDS011;61763;51.416;5.442;2022-12-07T11:27:41;8.10;;;2.47;;
73515;SDS011;61763;51.416;5.442;2022-12-07T11:30:19;6.28;;;2.53;;
73515;SDS011;61763;51.416;5.442;2022-12-07T11:38:52;6.03;;;1.73;;
73515;SDS011;61763;51.416;5.442;2022-12-07T11:41:22;7.38;;;1.77;;
73515;SDS011;61763;51.416;5.442;2022-12-07T11:43:59;7.88;;;2.00;;
73515;SDS011;61763;51.416;5.442;2022-12-07T11:49:23;6.28;;;1.65;;
73515;SDS011;61763;51.416;5.442;2022-12-07T11:52:02;5.00;;;1.67;;
73515;SDS011;61763;51.416;5.442;2022-12-07T11:54:35;7.32;;;1.45;;
73515;SDS011;61763;51.416;5.442;2022-12-07T11:57:07;6.30;;;2.03;;
73515;SDS011;61763;51.416;5.442;2022-12-07T11:59:43;3.30;;;1.05;;
73515;SDS011;61763;51.416;5.442;2022-12-07T12:02:16;7.93;;;1.20;;
73515;SDS011;61763;51.416;5.442;2022-12-07T12:07:32;4.35;;;1.00;;
73515;SDS011;61763;51.416;5.442;2022-12-07T12:15:31;4.10;;;0.70;;
73515;SDS011;61763;51.416;5.442;2022-12-07T12:20:54;5.90;;;1.50;;
73515;SDS011;61763;51.416;5.442;2022-12-07T12:23:32;5.85;;;0.70;;
73515;SDS011;61763;51.416;5.442;2022-12-07T12:26:03;3.90;;;0.75;;
73515;SDS011;61763;51.416;5.442;2022-12-07T12:28:39;5.47;;;1.08;;
73515;SDS011;61763;51.416;5.442;2022-12-07T12:31:15;4.50;;;0.80;;
73515;SDS011;61763;51.416;5.442;2022-12-07T12:33:57;3.20;;;0.57;;
73515;SDS011;61763;51.416;5.442;2022-12-07T12:39:10;2.70;;;0.60;;
73515;SDS011;61763;51.416;5.442;2022-12-07T12:41:53;3.25;;;0.88;;
73515;SDS011;61763;51.416;5.442;2022-12-07T12:54:15;4.90;;;0.70;;
73515;SDS011;61763;51.416;5.442;2022-12-07T12:57:00;3.72;;;0.77;;
73515;SDS011;61763;51.416;5.442;2022-12-07T12:59:33;3.70;;;0.90;;
73515;SDS011;61763;51.416;5.442;2022-12-07T13:18:39;2.90;;;0.77;;
73515;SDS011;61763;51.416;5.442;2022-12-07T13:28:58;2.05;;;0.63;;
73515;SDS011;61763;51.416;5.442;2022-12-07T13:31:36;6.78;;;0.90;;
73515;SDS011;61763;51.416;5.442;2022-12-07T13:34:04;3.58;;;0.50;;
73515;SDS011;61763;51.416;5.442;2022-12-07T13:36:50;7.80;;;1.02;;
73515;SDS011;61763;51.416;5.442;2022-12-07T13:39:18;3.85;;;1.23;;
73515;SDS011;61763;51.416;5.442;2022-12-07T13:41:49;4.70;;;1.27;;
73515;SDS011;61763;51.416;5.442;2022-12-07T13:44:17;4.97;;;1.02;;
73515;SDS011;61763;51.416;5.442;2022-12-07T13:49:37;4.72;;;0.82;;
73515;SDS011;61763;51.416;5.442;2022-12-07T13:52:18;5.80;;;1.48;;
73515;SDS011;61763;51.416;5.442;2022-12-07T13:55:17;3.38;;;1.23;;
73515;SDS011;61763;51.416;5.442;2022-12-07T14:00:28;3.85;;;0.60;;
73515;SDS011;61763;51.416;5.442;2022-12-07T14:03:00;4.32;;;0.52;;
73515;SDS011;61763;51.416;5.442;2022-12-07T14:05:32;10.05;;;4.25;;
73515;SDS011;61763;51.416;5.442;2022-12-07T14:16:27;6.13;;;1.30;;
73515;SDS011;61763;51.416;5.442;2022-12-07T14:18:53;5.20;;;1.35;;
73515;SDS011;61763;51.416;5.442;2022-12-07T14:21:21;4.20;;;1.30;;
73515;SDS011;61763;51.416;5.442;2022-12-07T14:31:44;3.10;;;1.05;;
73515;SDS011;61763;51.416;5.442;2022-12-07T14:34:13;8.73;;;1.48;;
73515;SDS011;61763;51.416;5.442;2022-12-07T14:36:38;5.80;;;1.30;;
73515;SDS011;61763;51.416;5.442;2022-12-07T14:39:04;5.35;;;1.80;;
73515;SDS011;61763;51.416;5.442;2022-12-07T14:41:29;7.07;;;1.40;;
73515;SDS011;61763;51.416;5.442;2022-12-07T14:44:13;5.65;;;1.80;;
73515;SDS011;61763;51.416;5.442;2022-12-07T14:46:38;7.43;;;1.60;;
73515;SDS011;61763;51.416;5.442;2022-12-07T14:49:04;6.20;;;1.98;;
73515;SDS011;61763;51.416;5.442;2022-12-07T14:51:30;4.97;;;1.23;;
73515;SDS011;61763;51.416;5.442;2022-12-07T14:53:55;5.10;;;1.48;;
73515;SDS011;61763;51.416;5.442;2022-12-07T14:56:21;4.57;;;1.52;;
73515;SDS011;61763;51.416;5.442;2022-12-07T14:58:46;8.40;;;1.42;;
73515;SDS011;61763;51.416;5.442;2022-12-07T15:01:13;3.67;;;0.90;;
73515;SDS011;61763;51.416;5.442;2022-12-07T15:03:38;5.13;;;1.10;;
73515;SDS011;61763;51.416;5.442;2022-12-07T15:06:04;4.25;;;0.70;;
73515;SDS011;61763;51.416;5.442;2022-12-07T15:08:30;5.43;;;0.85;;
73515;SDS011;61763;51.416;5.442;2022-12-07T15:10:57;4.32;;;0.90;;
73515;SDS011;61763;51.416;5.442;2022-12-07T15:13:22;2.50;;;0.52;;
73515;SDS011;61763;51.416;5.442;2022-12-07T15:16:10;3.47;;;0.40;;
73515;SDS011;61763;51.416;5.442;2022-12-07T15:18:37;4.07;;;0.80;;
73515;SDS011;61763;51.416;5.442;2022-12-07T15:21:03;3.47;;;1.05;;
73515;SDS011;61763;51.416;5.442;2022-12-07T15:23:28;3.35;;;0.63;;
73515;SDS011;61763;51.416;5.442;2022-12-07T15:25:54;4.00;;;0.90;;
73515;SDS011;61763;51.416;5.442;2022-12-07T15:28:19;7.10;;;1.33;;
73515;SDS011;61763;51.416;5.442;2022-12-07T15:30:45;3.85;;;0.98;;
73515;SDS011;61763;51.416;5.442;2022-12-07T15:33:11;4.47;;;0.60;;
73515;SDS011;61763;51.416;5.442;2022-12-07T15:35:40;7.32;;;1.33;;
73515;SDS011;61763;51.416;5.442;2022-12-07T15:38:06;4.88;;;0.95;;
73515;SDS011;61763;51.416;5.442;2022-12-07T15:40:32;4.10;;;1.00;;
73515;SDS011;61763;51.416;5.442;2022-12-07T15:42:57;3.90;;;1.35;;
73515;SDS011;61763;51.416;5.442;2022-12-07T15:45:22;4.45;;;1.35;;
73515;SDS011;61763;51.416;5.442;2022-12-07T15:47:48;4.35;;;1.40;;
73515;SDS011;61763;51.416;5.442;2022-12-07T15:50:15;5.18;;;1.40;;
73515;SDS011;61763;51.416;5.442;2022-12-07T15:52:42;5.38;;;1.30;;
73515;SDS011;61763;51.416;5.442;2022-12-07T15:55:08;5.53;;;1.40;;
73515;SDS011;61763;51.416;5.442;2022-12-07T15:57:35;4.40;;;1.50;;
73515;SDS011;61763;51.416;5.442;2022-12-07T16:00:07;6.47;;;1.80;;
73515;SDS011;61763;51.416;5.442;2022-12-07T16:02:34;4.97;;;1.30;;
73515;SDS011;61763;51.416;5.442;2022-12-07T16:05:01;4.00;;;1.77;;
73515;SDS011;61763;51.416;5.442;2022-12-07T16:07:29;5.15;;;1.92;;
73515;SDS011;61763;51.416;5.442;2022-12-07T16:09:54;5.60;;;1.63;;
73515;SDS011;61763;51.416;5.442;2022-12-07T16:12:20;4.38;;;1.73;;
73515;SDS011;61763;51.416;5.442;2022-12-07T16:14:45;4.63;;;1.42;;
73515;SDS011;61763;51.416;5.442;2022-12-07T16:17:10;9.35;;;2.28;;
73515;SDS011;61763;51.416;5.442;2022-12-07T16:19:36;8.05;;;2.10;;
73515;SDS011;61763;51.416;5.442;2022-12-07T16:22:03;7.63;;;2.30;;
73515;SDS011;61763;51.416;5.442;2022-12-07T16:24:29;5.30;;;1.48;;
73515;SDS011;61763;51.416;5.442;2022-12-07T16:26:55;5.43;;;2.00;;
73515;SDS011;61763;51.416;5.442;2022-12-07T16:29:21;7.97;;;2.53;;
73515;SDS011;61763;51.416;5.442;2022-12-07T16:31:48;5.10;;;1.92;;
73515;SDS011;61763;51.416;5.442;2022-12-07T16:34:14;6.10;;;3.00;;
73515;SDS011;61763;51.416;5.442;2022-12-07T16:36:39;6.65;;;1.42;;
73515;SDS011;61763;51.416;5.442;2022-12-07T16:39:05;4.93;;;1.55;;
73515;SDS011;61763;51.416;5.442;2022-12-07T16:41:31;7.90;;;2.17;;
73515;SDS011;61763;51.416;5.442;2022-12-07T16:43:57;4.80;;;1.40;;
73515;SDS011;61763;51.416;5.442;2022-12-07T16:46:22;6.07;;;1.50;;
73515;SDS011;61763;51.416;5.442;2022-12-07T16:48:47;5.88;;;1.67;;
73515;SDS011;61763;51.416;5.442;2022-12-07T16:51:14;4.60;;;1.60;;
73515;SDS011;61763;51.416;5.442;2022-12-07T16:53:41;6.28;;;1.90;;
73515;SDS011;61763;51.416;5.442;2022-12-07T16:56:14;7.47;;;1.95;;
73515;SDS011;61763;51.416;5.442;2022-12-07T16:58:42;4.75;;;1.52;;
73515;SDS011;61763;51.416;5.442;2022-12-07T17:01:11;3.55;;;1.70;;
73515;SDS011;61763;51.416;5.442;2022-12-07T17:03:38;5.35;;;1.40;;
73515;SDS011;61763;51.416;5.442;2022-12-07T17:06:10;5.85;;;1.50;;
73515;SDS011;61763;51.416;5.442;2022-12-07T17:08:46;3.97;;;1.23;;
73515;SDS011;61763;51.416;5.442;2022-12-07T17:11:15;4.43;;;1.17;;
73515;SDS011;61763;51.416;5.442;2022-12-07T17:13:43;5.97;;;1.23;;
73515;SDS011;61763;51.416;5.442;2022-12-07T17:16:27;3.47;;;1.13;;
73515;SDS011;61763;51.416;5.442;2022-12-07T17:18:53;4.75;;;1.20;;